createdAt,value
2023-04-16T00:01:13.202Z,100337.73
2023-04-16T00:03:45.578Z,100339.53
2023-04-16T00:06:17.730Z,100339.89
2023-04-16T00:08:50.498Z,100341.34
2023-04-16T00:11:22.489Z,100340.14
2023-04-16T00:13:54.627Z,100338.75
2023-04-16T00:16:29.188Z,100336.89
2023-04-16T00:19:04.224Z,100334.73
2023-04-16T00:21:36.262Z,100333.81
2023-04-16T00:24:08.631Z,100336.92
2023-04-16T00:26:41.218Z,100336.70
2023-04-16T00:29:14.302Z,100333.45
2023-04-16T00:31:46.449Z,100336.52
2023-04-16T00:34:19.334Z,100338.73
2023-04-16T00:36:51.606Z,100341.11
2023-04-16T00:39:23.870Z,100337.02
2023-04-16T00:41:57.884Z,100335.61
2023-04-16T00:44:31.482Z,100336.83
2023-04-16T00:47:05.008Z,100339.86
2023-04-16T00:49:37.969Z,100338.20
2023-04-16T00:52:12.300Z,100342.77
2023-04-16T00:54:45.003Z,100344.05
2023-04-16T00:57:21.107Z,100344.58
2023-04-16T00:59:54.433Z,100347.15
2023-04-16T01:02:29.877Z,100345.53
2023-04-16T01:05:03.384Z,100350.52
2023-04-16T01:07:35.955Z,100351.42
2023-04-16T01:10:10.776Z,100349.01
2023-04-16T01:12:43.261Z,100353.23
2023-04-16T01:15:16.282Z,100352.14
2023-04-16T01:17:49.910Z,100353.41
2023-04-16T01:20:22.561Z,100352.27
2023-04-16T01:22:55.214Z,100348.45
2023-04-16T01:25:29.160Z,100348.25
2023-04-16T01:28:01.679Z,100349.71
2023-04-16T01:30:34.178Z,100352.95
2023-04-16T01:33:18.200Z,100349.71
2023-04-16T01:35:53.386Z,100350.14
2023-04-16T01:38:28.230Z,100350.71
2023-04-16T01:41:00.873Z,100351.90
2023-04-16T01:43:33.107Z,100355.48
2023-04-16T01:46:19.937Z,100352.91
2023-04-16T01:48:54.914Z,100350.05
2023-04-16T01:51:27.751Z,100353.98
2023-04-16T01:54:01.474Z,100356.94
2023-04-16T01:56:33.471Z,100358.29
2023-04-16T01:59:05.797Z,100362.03
2023-04-16T02:01:42.861Z,100364.45
2023-04-16T02:04:15.850Z,100367.00
2023-04-16T02:06:49.198Z,100368.90
2023-04-16T02:09:21.586Z,100370.96
2023-04-16T02:11:54.532Z,100374.78
2023-04-16T02:14:29.286Z,100377.08
2023-04-16T02:17:02.392Z,100377.48
2023-04-16T02:19:48.577Z,100378.30
2023-04-16T02:22:24.317Z,100378.18
2023-04-16T02:25:09.766Z,100377.09
2023-04-16T02:27:42.235Z,100380.20
2023-04-16T02:30:28.012Z,100383.45
2023-04-16T02:33:00.610Z,100387.89
2023-04-16T02:35:33.699Z,100394.02
2023-04-16T02:38:07.376Z,100391.36
2023-04-16T02:40:40.323Z,100394.43
2023-04-16T02:43:14.741Z,100395.37
2023-04-16T02:45:50.879Z,100400.98
2023-04-16T02:48:23.235Z,100405.08
2023-04-16T02:50:55.914Z,100407.27
2023-04-16T02:53:28.900Z,100411.16
2023-04-16T02:56:01.350Z,100410.92
2023-04-16T02:58:33.796Z,100412.48
2023-04-16T03:01:06.529Z,100415.70
2023-04-16T03:03:39.002Z,100415.15
2023-04-16T03:06:11.844Z,100414.78
2023-04-16T03:08:44.366Z,100418.52
2023-04-16T03:11:17.026Z,100421.35
2023-04-16T03:13:52.013Z,100420.05
2023-04-16T03:16:24.280Z,100419.41
2023-04-16T03:18:59.093Z,100420.98
2023-04-16T03:21:32.691Z,100418.98
2023-04-16T03:24:05.238Z,100421.13
2023-04-16T03:26:37.743Z,100416.61
2023-04-16T03:29:13.021Z,100417.38
2023-04-16T03:31:45.861Z,100422.55
2023-04-16T03:34:18.330Z,100426.04
2023-04-16T03:36:51.197Z,100425.52
2023-04-16T03:39:23.598Z,100421.98
2023-04-16T03:41:55.931Z,100426.58
2023-04-16T03:44:30.442Z,100427.75
2023-04-16T03:47:02.956Z,100430.27
2023-04-16T03:49:35.081Z,100431.75
2023-04-16T03:52:07.739Z,100432.27
2023-04-16T03:54:40.133Z,100430.25
2023-04-16T03:57:22.497Z,100432.67
2023-04-16T03:59:54.892Z,100439.33
2023-04-16T04:02:28.453Z,100440.73
2023-04-16T04:05:01.224Z,100439.92
2023-04-16T04:07:34.149Z,100438.98
2023-04-16T04:10:07.024Z,100440.76
2023-04-16T04:12:41.652Z,100442.77
2023-04-16T04:15:15.653Z,100440.40
2023-04-16T04:17:47.984Z,100448.36
2023-04-16T04:20:20.454Z,100448.50
2023-04-16T04:22:53.397Z,100450.43
2023-04-16T04:25:28.800Z,100450.55
2023-04-16T04:28:01.110Z,100453.05
2023-04-16T04:30:35.922Z,100456.86
2023-04-16T04:33:08.747Z,100454.65
2023-04-16T04:35:44.417Z,100462.72
2023-04-16T04:38:20.018Z,100467.45
2023-04-16T04:40:54.800Z,100468.98
2023-04-16T04:43:31.294Z,100467.91
2023-04-16T04:46:03.561Z,100468.84
2023-04-16T04:48:36.579Z,100474.14
2023-04-16T04:51:11.020Z,100473.75
2023-04-16T04:53:43.291Z,100479.42
2023-04-16T04:56:15.558Z,100482.45
2023-04-16T04:58:47.763Z,100482.37
2023-04-16T05:01:19.915Z,100481.93
2023-04-16T05:03:52.874Z,100484.76
2023-04-16T05:06:25.760Z,100482.21
2023-04-16T05:08:59.046Z,100483.85
2023-04-16T05:11:34.524Z,100482.88
2023-04-16T05:14:06.801Z,100484.20
2023-04-16T05:16:39.887Z,100486.52
2023-04-16T05:19:12.287Z,100487.38
2023-04-16T05:21:44.627Z,100488.94
2023-04-16T05:24:16.819Z,100492.39
2023-04-16T05:26:51.666Z,100497.86
2023-04-16T05:29:23.971Z,100498.55
2023-04-16T05:31:56.262Z,100499.58
2023-04-16T05:34:31.248Z,100498.38
2023-04-16T05:37:05.912Z,100498.25
2023-04-16T05:39:38.363Z,100498.42
2023-04-16T05:42:10.787Z,100503.08
2023-04-16T05:44:43.064Z,100502.91
2023-04-16T05:47:16.053Z,100503.62
2023-04-16T05:49:51.360Z,100504.23
2023-04-16T05:52:23.543Z,100503.41
2023-04-16T05:54:55.821Z,100507.11
2023-04-16T05:57:28.467Z,100511.15
2023-04-16T06:00:00.711Z,100515.33
2023-04-16T06:02:33.698Z,100516.71
2023-04-16T06:05:06.711Z,100516.65
2023-04-16T06:07:39.197Z,100516.92
2023-04-16T06:10:15.037Z,100520.89
2023-04-16T06:12:47.132Z,100520.86
2023-04-16T06:15:19.373Z,100523.22
2023-04-16T06:17:52.838Z,100524.50
2023-04-16T06:20:31.402Z,100529.81
2023-04-16T06:23:01.902Z,100532.48
2023-04-16T06:25:34.216Z,100531.92
2023-04-16T06:28:06.548Z,100545.38
2023-04-16T06:30:38.952Z,100547.22
2023-04-16T06:33:13.820Z,100552.84
2023-04-16T06:35:46.180Z,100552.77
2023-04-16T06:38:18.529Z,100550.02
2023-04-16T06:40:51.099Z,100547.19
2023-04-16T06:43:23.904Z,100544.70
2023-04-16T06:45:59.005Z,100539.63
2023-04-16T06:48:31.620Z,100540.00
2023-04-16T06:51:03.805Z,100543.68
2023-04-16T06:53:37.802Z,100544.66
2023-04-16T06:56:11.398Z,100546.49
2023-04-16T06:58:43.488Z,100543.70
2023-04-16T07:01:17.944Z,100548.02
2023-04-16T07:03:50.550Z,100553.60
2023-04-16T07:06:23.494Z,100554.56
2023-04-16T07:08:56.047Z,100560.90
2023-04-16T07:11:31.395Z,100563.00
2023-04-16T07:14:03.617Z,100564.41
2023-04-16T07:16:37.971Z,100566.27
2023-04-16T07:19:11.671Z,100565.99
2023-04-16T07:21:43.922Z,100571.82
2023-04-16T07:24:17.305Z,100577.27
2023-04-16T07:26:49.200Z,100580.41
2023-04-16T07:29:21.282Z,100580.52
2023-04-16T07:31:54.265Z,100583.66
2023-04-16T07:34:27.228Z,100586.92
2023-04-16T07:36:59.343Z,100593.70
2023-04-16T07:39:32.919Z,100595.40
2023-04-16T07:42:05.264Z,100592.86
2023-04-16T07:44:37.851Z,100591.65
2023-04-16T07:47:10.202Z,100590.09
2023-04-16T07:49:42.634Z,100591.57
2023-04-16T07:52:14.962Z,100593.36
2023-04-16T07:54:47.390Z,100600.55
2023-04-16T07:57:20.574Z,100606.48
2023-04-16T07:59:52.732Z,100614.17
2023-04-16T08:02:24.891Z,100616.33
2023-04-16T08:04:57.882Z,100622.39
2023-04-16T08:07:34.465Z,100623.10
2023-04-16T08:10:09.656Z,100624.48
2023-04-16T08:12:41.926Z,100627.52
2023-04-16T08:15:14.503Z,100626.96
2023-04-16T08:17:47.138Z,100628.70
2023-04-16T08:20:19.903Z,100628.83
2023-04-16T08:22:52.439Z,100629.89
2023-04-16T08:25:25.032Z,100633.65
2023-04-16T08:27:57.954Z,100630.55
2023-04-16T08:30:33.391Z,100628.60
2023-04-16T08:33:05.504Z,100627.11
2023-04-16T08:35:38.134Z,100623.86
2023-04-16T08:38:16.822Z,100629.00
2023-04-16T08:40:50.856Z,100627.86
2023-04-16T08:43:31.412Z,100633.04
2023-04-16T08:46:05.065Z,100631.39
2023-04-16T08:48:38.437Z,100634.16
2023-04-16T08:51:13.362Z,100637.45
2023-04-16T08:53:54.738Z,100642.55
2023-04-16T08:56:30.046Z,100641.33
2023-04-16T08:59:05.741Z,100644.18
2023-04-16T09:01:41.806Z,100650.39
2023-04-16T09:04:15.422Z,100650.20
2023-04-16T09:06:49.776Z,100648.36
2023-04-16T09:09:24.150Z,100648.98
2023-04-16T09:11:59.765Z,100643.65
2023-04-16T09:14:43.384Z,100645.80
2023-04-16T09:17:17.303Z,100653.21
2023-04-16T09:19:50.079Z,100649.34
2023-04-16T09:22:23.373Z,100651.66
2023-04-16T09:24:56.243Z,100655.09
2023-04-16T09:27:29.706Z,100659.32
2023-04-16T09:30:02.336Z,100659.88
2023-04-16T09:32:34.610Z,100665.34
2023-04-16T09:35:11.377Z,100671.75
2023-04-16T09:37:44.252Z,100671.29
2023-04-16T09:40:25.701Z,100674.09
2023-04-16T09:43:01.907Z,100673.66
2023-04-16T09:45:52.166Z,100671.98
2023-04-16T09:48:34.919Z,100677.30
2023-04-16T09:51:09.578Z,100677.05
2023-04-16T09:53:42.280Z,100680.35
2023-04-16T09:56:16.675Z,100684.04
2023-04-16T09:58:49.579Z,100687.84
2023-04-16T10:01:22.359Z,100687.08
2023-04-16T10:03:57.226Z,100691.31
2023-04-16T10:06:32.056Z,100690.27
2023-04-16T10:09:08.548Z,100691.23
2023-04-16T10:11:42.557Z,100693.83
2023-04-16T10:14:14.785Z,100693.02
2023-04-16T10:16:48.021Z,100697.66
2023-04-16T10:19:20.914Z,100696.95
2023-04-16T10:21:53.898Z,100699.85
2023-04-16T10:24:27.492Z,100702.09
2023-04-16T10:27:00.552Z,100700.52
2023-04-16T10:29:34.082Z,100703.07
2023-04-16T10:32:07.379Z,100711.48
2023-04-16T10:34:40.619Z,100709.48
2023-04-16T10:37:12.715Z,100714.86
2023-04-16T10:39:45.104Z,100707.34
2023-04-16T10:42:17.401Z,100707.05
2023-04-16T10:44:49.854Z,100707.21
2023-04-16T10:47:26.331Z,100705.96
2023-04-16T10:49:59.387Z,100704.33
2023-04-16T10:52:32.456Z,100705.87
2023-04-16T10:55:04.672Z,100706.04
2023-04-16T10:57:37.178Z,100709.28
2023-04-16T11:00:24.804Z,100709.41
2023-04-16T11:02:57.506Z,100709.33
2023-04-16T11:05:47.960Z,100712.61
2023-04-16T11:08:20.236Z,100713.59
2023-04-16T11:10:52.649Z,100715.98
2023-04-16T11:13:25.413Z,100716.67
2023-04-16T11:16:00.758Z,100717.33
2023-04-16T11:18:33.096Z,100722.61
2023-04-16T11:21:08.907Z,100724.52
2023-04-16T11:23:54.873Z,100725.41
2023-04-16T11:26:32.334Z,100725.36
2023-04-16T11:29:15.896Z,100724.69
2023-04-16T11:31:54.382Z,100724.95
2023-04-16T11:34:27.572Z,100723.13
2023-04-16T11:37:01.906Z,100725.59
2023-04-16T11:39:35.528Z,100729.16
2023-04-16T11:42:07.809Z,100727.88
2023-04-16T11:44:40.142Z,100729.48
2023-04-16T11:47:14.124Z,100729.02
2023-04-16T11:49:48.572Z,100726.45
2023-04-16T11:52:31.090Z,100725.77
2023-04-16T11:55:03.879Z,100722.34
2023-04-16T11:57:36.275Z,100720.70
2023-04-16T12:00:13.985Z,100717.92
2023-04-16T12:02:48.027Z,100715.28
2023-04-16T12:05:35.123Z,100709.71
2023-04-16T12:08:10.999Z,100707.12
2023-04-16T12:10:58.250Z,100712.08
2023-04-16T12:13:30.758Z,100710.80
2023-04-16T12:16:03.175Z,100712.44
2023-04-16T12:18:38.133Z,100709.94
2023-04-16T12:21:10.410Z,100710.93
2023-04-16T12:23:42.779Z,100711.58
2023-04-16T12:26:17.175Z,100707.64
2023-04-16T12:28:49.466Z,100705.79
2023-04-16T12:31:39.558Z,100703.02
2023-04-16T12:34:16.709Z,100704.58
2023-04-16T12:36:49.809Z,100703.70
2023-04-16T12:39:22.752Z,100704.73
2023-04-16T12:41:55.908Z,100700.05
2023-04-16T12:44:33.166Z,100700.98
2023-04-16T12:47:05.854Z,100701.77
2023-04-16T12:49:38.558Z,100695.70
2023-04-16T12:52:10.636Z,100691.55
2023-04-16T12:54:42.959Z,100693.38
2023-04-16T12:57:15.213Z,100693.28
2023-04-16T12:59:47.852Z,100692.52
2023-04-16T13:02:20.604Z,100688.67
2023-04-16T13:04:53.279Z,100689.59
2023-04-16T13:07:27.638Z,100688.92
2023-04-16T13:10:00.817Z,100691.73
2023-04-16T13:12:33.001Z,100693.29
2023-04-16T13:15:05.708Z,100689.77
2023-04-16T13:17:38.232Z,100687.03
2023-04-16T13:20:13.126Z,100683.50
2023-04-16T13:22:49.956Z,100685.95
2023-04-16T13:25:22.122Z,100686.20
2023-04-16T13:27:54.303Z,100686.52
2023-04-16T13:30:33.702Z,100680.75
2023-04-16T13:33:06.173Z,100688.06
2023-04-16T13:35:38.161Z,100689.86
2023-04-16T13:38:12.862Z,100690.61
2023-04-16T13:40:45.684Z,100693.02
2023-04-16T13:43:19.112Z,100694.64
2023-04-16T13:45:51.165Z,100694.58
2023-04-16T13:48:23.507Z,100694.41
2023-04-16T13:50:56.198Z,100697.21
2023-04-16T13:53:30.860Z,100700.73
2023-04-16T13:56:04.245Z,100700.13
2023-04-16T13:58:36.304Z,100700.52
2023-04-16T14:01:08.395Z,100698.91
2023-04-16T14:03:42.214Z,100702.91
2023-04-16T14:06:15.144Z,100702.03
2023-04-16T14:08:47.300Z,100700.11
2023-04-16T14:11:19.812Z,100700.71
2023-04-16T14:13:52.048Z,100694.39
2023-04-16T14:16:24.127Z,100692.06
2023-04-16T14:18:57.113Z,100693.95
2023-04-16T14:21:29.820Z,100694.27
2023-04-16T14:24:06.291Z,100695.38
2023-04-16T14:26:38.494Z,100693.42
2023-04-16T14:29:11.006Z,100695.09
2023-04-16T14:31:43.114Z,100696.63
2023-04-16T14:34:15.331Z,100696.00
2023-04-16T14:36:49.311Z,100697.00
2023-04-16T14:39:21.676Z,100695.46
2023-04-16T14:41:53.549Z,100698.92
2023-04-16T14:44:27.606Z,100699.67
2023-04-16T14:46:59.501Z,100699.17
2023-04-16T14:49:32.371Z,100701.82
2023-04-16T14:52:05.843Z,100697.90
2023-04-16T14:54:39.373Z,100702.31
2023-04-16T14:57:11.331Z,100702.17
2023-04-16T14:59:43.675Z,100703.55
2023-04-16T15:02:16.310Z,100703.86
2023-04-16T15:04:48.831Z,100706.26
2023-04-16T15:07:21.385Z,100710.96
2023-04-16T15:09:54.132Z,100711.98
2023-04-16T15:12:26.948Z,100710.91
2023-04-16T15:15:00.064Z,100712.26
2023-04-16T15:17:32.189Z,100707.66
2023-04-16T15:20:08.267Z,100714.92
2023-04-16T15:22:41.227Z,100718.72
2023-04-16T15:25:14.634Z,100718.29
2023-04-16T15:27:46.584Z,100713.38
2023-04-16T15:30:19.108Z,100715.09
2023-04-16T15:32:52.063Z,100717.80
2023-04-16T15:35:27.036Z,100718.41
2023-04-16T15:37:59.145Z,100721.30
2023-04-16T15:40:31.410Z,100725.86
2023-04-16T15:43:04.268Z,100728.10
2023-04-16T15:45:37.610Z,100731.59
2023-04-16T15:48:10.036Z,100731.27
2023-04-16T15:50:42.205Z,100729.27
2023-04-16T15:53:14.256Z,100730.16
2023-04-16T15:55:50.550Z,100733.58
2023-04-16T15:58:23.212Z,100731.06
2023-04-16T16:00:55.767Z,100732.92
2023-04-16T16:03:30.145Z,100731.60
2023-04-16T16:06:04.149Z,100731.22
2023-04-16T16:08:39.580Z,100733.35
2023-04-16T16:11:14.196Z,100737.48
2023-04-16T16:13:46.355Z,100741.64
2023-04-16T16:16:20.306Z,100744.05
2023-04-16T16:18:52.328Z,100748.59
2023-04-16T16:21:24.821Z,100755.89
2023-04-16T16:23:59.233Z,100755.15
2023-04-16T16:26:32.665Z,100759.19
2023-04-16T16:29:05.034Z,100759.56
2023-04-16T16:31:47.397Z,100759.02
2023-04-16T16:34:23.177Z,100765.36
2023-04-16T16:37:05.831Z,100768.66
2023-04-16T16:39:49.467Z,100770.02
2023-04-16T16:42:24.311Z,100771.48
2023-04-16T16:45:02.889Z,100776.85
2023-04-16T16:50:36.135Z,100783.73
2023-04-16T16:53:09.409Z,100787.20
2023-04-16T16:55:45.161Z,100788.68
2023-04-16T16:58:18.929Z,100796.58
2023-04-16T17:00:59.097Z,100804.27
2023-04-16T17:03:38.794Z,100803.89
2023-04-16T17:06:19.897Z,100804.87
2023-04-16T17:08:55.200Z,100807.69
2023-04-16T17:11:29.697Z,100812.20
2023-04-16T17:14:07.708Z,100809.41
2023-04-16T17:16:40.932Z,100812.73
2023-04-16T17:19:17.604Z,100814.37
2023-04-16T17:21:53.917Z,100816.25
2023-04-16T17:24:31.938Z,100819.52
2023-04-16T17:27:11.014Z,100824.80
2023-04-16T17:29:46.258Z,100821.25
2023-04-16T17:32:18.811Z,100823.27
2023-04-16T17:34:51.852Z,100824.69
2023-04-16T17:37:25.051Z,100827.90
2023-04-16T17:39:57.649Z,100828.19
2023-04-16T17:42:29.736Z,100829.08
2023-04-16T17:45:02.304Z,100831.80
2023-04-16T17:47:35.414Z,100837.91
2023-04-16T17:50:10.198Z,100838.22
2023-04-16T17:52:43.114Z,100840.20
2023-04-16T17:55:19.023Z,100844.77
2023-04-16T17:57:51.405Z,100845.48
2023-04-16T18:00:31.585Z,100849.42
2023-04-16T18:03:04.372Z,100851.69
2023-04-16T18:05:36.869Z,100857.66
2023-04-16T18:08:11.460Z,100858.79
2023-04-16T18:10:44.094Z,100863.38
2023-04-16T18:13:16.706Z,100867.22
2023-04-16T18:15:49.117Z,100870.25
2023-04-16T18:18:21.862Z,100868.06
2023-04-16T18:20:59.143Z,100868.57
2023-04-16T18:23:32.438Z,100873.33
2023-04-16T18:26:08.317Z,100876.54
2023-04-16T18:28:42.452Z,100883.42
2023-04-16T18:31:15.220Z,100881.42
2023-04-16T18:33:56.521Z,100884.35
2023-04-16T18:36:33.871Z,100886.36
2023-04-16T18:39:08.393Z,100888.05
2023-04-16T18:41:42.449Z,100889.17
2023-04-16T18:44:15.119Z,100885.34
2023-04-16T18:46:49.813Z,100886.79
2023-04-16T18:49:22.160Z,100886.95
2023-04-16T18:51:59.145Z,100886.41
2023-04-16T18:54:32.528Z,100883.45
2023-04-16T18:57:04.937Z,100885.25
2023-04-16T18:59:37.937Z,100882.59
2023-04-16T19:02:11.412Z,100881.49
2023-04-16T19:04:45.702Z,100881.87
2023-04-16T19:07:19.642Z,100881.54
2023-04-16T19:09:52.891Z,100886.27
2023-04-16T19:12:28.390Z,100892.06
2023-04-16T19:15:03.041Z,100891.56
2023-04-16T19:17:36.827Z,100892.01
2023-04-16T19:20:12.787Z,100894.02
2023-04-16T19:22:45.165Z,100894.77
2023-04-16T19:25:17.277Z,100891.70
2023-04-16T19:27:49.545Z,100893.35
2023-04-16T19:30:25.077Z,100892.50
2023-04-16T19:33:02.053Z,100895.13
2023-04-16T19:35:37.144Z,100891.73
2023-04-16T19:38:10.962Z,100893.39
2023-04-16T19:40:47.120Z,100891.90
2023-04-16T19:43:19.523Z,100892.34
2023-04-16T19:45:53.782Z,100889.46
2023-04-16T19:48:28.918Z,100887.08
2023-04-16T19:51:05.818Z,100886.16
2023-04-16T19:53:38.507Z,100888.81
2023-04-16T19:56:14.078Z,100887.85
2023-04-16T19:58:46.469Z,100889.52
2023-04-16T20:01:18.729Z,100890.11
2023-04-16T20:03:51.429Z,100892.34
2023-04-16T20:06:24.357Z,100892.71
2023-04-16T20:08:57.965Z,100891.10
2023-04-16T20:11:32.780Z,100891.14
2023-04-16T20:14:05.787Z,100892.91
2023-04-16T20:16:41.282Z,100892.09
2023-04-16T20:19:17.205Z,100892.55
2023-04-16T20:21:49.380Z,100896.00
2023-04-16T20:24:24.303Z,100895.71
2023-04-16T20:26:56.616Z,100897.74
2023-04-16T20:29:31.848Z,100897.85
2023-04-16T20:32:03.911Z,100894.24
2023-04-16T20:34:39.034Z,100898.64
2023-04-16T20:37:11.250Z,100896.24
2023-04-16T20:39:45.215Z,100896.71
2023-04-16T20:42:18.067Z,100899.79
2023-04-16T20:44:55.850Z,100900.85
2023-04-16T20:47:28.910Z,100901.45
2023-04-16T20:50:01.839Z,100897.81
2023-04-16T20:52:34.493Z,100899.74
2023-04-16T20:55:08.162Z,100897.26
2023-04-16T20:57:43.314Z,100895.45
2023-04-16T21:00:24.114Z,100899.77
2023-04-16T21:02:56.361Z,100896.17
2023-04-16T21:05:33.584Z,100895.40
2023-04-16T21:08:06.147Z,100892.98
2023-04-16T21:10:40.724Z,100892.73
2023-04-16T21:13:13.061Z,100890.02
2023-04-16T21:15:46.688Z,100889.70
2023-04-16T21:18:19.478Z,100890.26
2023-04-16T21:20:51.709Z,100890.98
2023-04-16T21:23:23.894Z,100889.24
2023-04-16T21:25:57.994Z,100892.91
2023-04-16T21:28:33.318Z,100891.52
2023-04-16T21:31:05.815Z,100891.67
2023-04-16T21:33:39.094Z,100888.52
2023-04-16T21:36:11.998Z,100888.85
2023-04-16T21:38:46.379Z,100890.37
2023-04-16T21:41:18.680Z,100891.17
2023-04-16T21:43:50.738Z,100892.56
2023-04-16T21:46:23.175Z,100890.11
2023-04-16T21:48:55.280Z,100893.04
2023-04-16T21:51:30.061Z,100893.86
2023-04-16T21:54:02.082Z,100895.82
2023-04-16T21:56:34.754Z,100893.98
2023-04-16T21:59:06.881Z,100896.27
2023-04-16T22:01:39.226Z,100893.21
2023-04-16T22:04:12.661Z,100892.83
2023-04-16T22:06:46.395Z,100893.16
2023-04-16T22:09:18.472Z,100891.84
2023-04-16T22:11:50.537Z,100891.02
2023-04-16T22:14:22.595Z,100889.48
2023-04-16T22:16:59.740Z,100890.48
2023-04-16T22:19:35.016Z,100887.89
2023-04-16T22:22:09.846Z,100889.77
2023-04-16T22:24:42.003Z,100893.07
2023-04-16T22:27:15.639Z,100892.91
2023-04-16T22:29:48.032Z,100892.06
2023-04-16T22:32:20.549Z,100890.39
2023-04-16T22:34:54.916Z,100896.13
2023-04-16T22:37:29.551Z,100897.81
2023-04-16T22:40:01.649Z,100897.84
2023-04-16T22:42:33.893Z,100899.15
2023-04-16T22:45:08.972Z,100898.76
2023-04-16T22:47:41.832Z,100898.23
2023-04-16T22:50:14.207Z,100895.58
2023-04-16T22:52:46.308Z,100898.83
2023-04-16T22:55:18.250Z,100898.47
2023-04-16T22:57:50.371Z,100895.66
2023-04-16T23:00:22.743Z,100892.80
2023-04-16T23:02:54.853Z,100889.98
2023-04-16T23:05:29.708Z,100892.05
2023-04-16T23:08:02.329Z,100888.09
2023-04-16T23:10:34.320Z,100885.35
2023-04-16T23:13:06.560Z,100888.06
2023-04-16T23:15:38.778Z,100891.11
2023-04-16T23:18:11.000Z,100888.73
2023-04-16T23:20:44.810Z,100885.69
2023-04-16T23:23:16.903Z,100887.98
2023-04-16T23:25:49.035Z,100887.17
2023-04-16T23:28:24.014Z,100884.21
2023-04-16T23:30:56.120Z,100884.36
2023-04-16T23:33:35.734Z,100886.20
2023-04-16T23:36:12.836Z,100882.06
2023-04-16T23:38:44.918Z,100878.80
2023-04-16T23:41:16.972Z,100877.89
2023-04-16T23:43:50.581Z,100874.95
2023-04-16T23:46:22.702Z,100873.20
2023-04-16T23:48:55.494Z,100876.20
2023-04-16T23:51:30.732Z,100875.57
2023-04-16T23:54:04.217Z,100873.73
2023-04-16T23:56:36.426Z,100872.58
2023-04-16T23:59:11.294Z,100875.20
